sensor_id;sensor_type;location;lat;lon;timestamp;P1;durP1;ratioP1;P2;durP2;ratioP2
59271;SDS011;45043;51.068;7.026;2023-01-13T00:01:39;0.60;;;0.60;;
59271;SDS011;45043;51.068;7.026;2023-01-13T00:04:39;0.73;;;0.53;;
59271;SDS011;45043;51.068;7.026;2023-01-13T00:07:40;0.50;;;0.50;;
59271;SDS011;45043;51.068;7.026;2023-01-13T00:10:40;0.70;;;0.70;;
59271;SDS011;45043;51.068;7.026;2023-01-13T00:13:40;0.70;;;0.70;;
59271;SDS011;45043;51.068;7.026;2023-01-13T00:16:42;1.03;;;0.70;;
59271;SDS011;45043;51.068;7.026;2023-01-13T00:19:42;1.20;;;0.50;;
59271;SDS011;45043;51.068;7.026;2023-01-13T00:22:43;0.93;;;0.60;;
59271;SDS011;45043;51.068;7.026;2023-01-13T00:25:44;0.63;;;0.60;;
59271;SDS011;45043;51.068;7.026;2023-01-13T00:28:44;0.60;;;0.60;;
59271;SDS011;45043;51.068;7.026;2023-01-13T00:31:45;1.13;;;0.70;;
59271;SDS011;45043;51.068;7.026;2023-01-13T00:34:45;0.70;;;0.70;;
59271;SDS011;45043;51.068;7.026;2023-01-13T00:37:46;0.77;;;0.70;;
59271;SDS011;45043;51.068;7.026;2023-01-13T00:40:53;0.57;;;0.57;;
59271;SDS011;45043;51.068;7.026;2023-01-13T00:43:55;0.80;;;0.80;;
59271;SDS011;45043;51.068;7.026;2023-01-13T00:46:56;0.70;;;0.70;;
59271;SDS011;45043;51.068;7.026;2023-01-13T00:49:56;1.07;;;0.60;;
59271;SDS011;45043;51.068;7.026;2023-01-13T00:53:00;1.10;;;0.90;;
59271;SDS011;45043;51.068;7.026;2023-01-13T00:56:02;0.90;;;0.90;;
59271;SDS011;45043;51.068;7.026;2023-01-13T00:59:04;1.27;;;0.93;;
59271;SDS011;45043;51.068;7.026;2023-01-13T01:02:05;0.93;;;0.90;;
59271;SDS011;45043;51.068;7.026;2023-01-13T01:05:06;1.53;;;1.13;;
59271;SDS011;45043;51.068;7.026;2023-01-13T01:08:06;0.77;;;0.77;;
59271;SDS011;45043;51.068;7.026;2023-01-13T01:11:08;1.33;;;1.03;;
59271;SDS011;45043;51.068;7.026;2023-01-13T01:14:11;0.63;;;0.63;;
59271;SDS011;45043;51.068;7.026;2023-01-13T01:17:13;2.30;;;1.37;;
59271;SDS011;45043;51.068;7.026;2023-01-13T01:20:13;1.63;;;1.00;;
59271;SDS011;45043;51.068;7.026;2023-01-13T01:23:14;1.10;;;0.97;;
59271;SDS011;45043;51.068;7.026;2023-01-13T01:26:15;2.70;;;1.27;;
59271;SDS011;45043;51.068;7.026;2023-01-13T01:29:18;1.20;;;0.97;;
59271;SDS011;45043;51.068;7.026;2023-01-13T01:32:19;1.00;;;0.90;;
59271;SDS011;45043;51.068;7.026;2023-01-13T01:35:19;1.70;;;1.10;;
59271;SDS011;45043;51.068;7.026;2023-01-13T01:38:20;1.20;;;1.10;;
59271;SDS011;45043;51.068;7.026;2023-01-13T01:41:23;2.70;;;1.60;;
59271;SDS011;45043;51.068;7.026;2023-01-13T01:47:41;4.33;;;1.50;;
59271;SDS011;45043;51.068;7.026;2023-01-13T01:50:43;3.57;;;1.70;;
59271;SDS011;45043;51.068;7.026;2023-01-13T01:53:44;2.87;;;1.10;;
59271;SDS011;45043;51.068;7.026;2023-01-13T01:56:47;3.37;;;1.27;;
59271;SDS011;45043;51.068;7.026;2023-01-13T01:59:48;2.37;;;0.90;;
59271;SDS011;45043;51.068;7.026;2023-01-13T02:02:49;3.90;;;1.60;;
59271;SDS011;45043;51.068;7.026;2023-01-13T02:05:51;2.67;;;1.37;;
59271;SDS011;45043;51.068;7.026;2023-01-13T02:08:51;2.23;;;1.17;;
59271;SDS011;45043;51.068;7.026;2023-01-13T02:11:53;2.80;;;0.90;;
59271;SDS011;45043;51.068;7.026;2023-01-13T02:15:13;2.73;;;1.40;;
59271;SDS011;45043;51.068;7.026;2023-01-13T02:18:21;3.07;;;1.10;;
59271;SDS011;45043;51.068;7.026;2023-01-13T02:25:35;2.63;;;1.03;;
59271;SDS011;45043;51.068;7.026;2023-01-13T02:42:15;1.57;;;0.77;;
59271;SDS011;45043;51.068;7.026;2023-01-13T02:46:02;3.30;;;1.40;;
59271;SDS011;45043;51.068;7.026;2023-01-13T02:49:09;2.17;;;1.10;;
59271;SDS011;45043;51.068;7.026;2023-01-13T02:55:36;3.87;;;1.63;;
59271;SDS011;45043;51.068;7.026;2023-01-13T02:58:40;3.63;;;1.47;;
59271;SDS011;45043;51.068;7.026;2023-01-13T03:01:43;2.00;;;1.20;;
59271;SDS011;45043;51.068;7.026;2023-01-13T03:04:54;3.33;;;1.50;;
59271;SDS011;45043;51.068;7.026;2023-01-13T03:11:18;1.93;;;1.23;;
59271;SDS011;45043;51.068;7.026;2023-01-13T03:17:40;1.83;;;1.40;;
59271;SDS011;45043;51.068;7.026;2023-01-13T03:21:04;3.23;;;1.50;;
59271;SDS011;45043;51.068;7.026;2023-01-13T03:24:15;2.53;;;1.33;;
59271;SDS011;45043;51.068;7.026;2023-01-13T03:27:21;3.07;;;1.90;;
59271;SDS011;45043;51.068;7.026;2023-01-13T03:30:36;3.03;;;1.37;;
59271;SDS011;45043;51.068;7.026;2023-01-13T03:33:43;4.90;;;1.80;;
59271;SDS011;45043;51.068;7.026;2023-01-13T03:36:51;5.00;;;1.50;;
59271;SDS011;45043;51.068;7.026;2023-01-13T03:39:57;5.63;;;1.73;;
59271;SDS011;45043;51.068;7.026;2023-01-13T03:43:02;5.00;;;2.00;;
59271;SDS011;45043;51.068;7.026;2023-01-13T03:46:38;4.33;;;2.00;;
59271;SDS011;45043;51.068;7.026;2023-01-13T03:49:47;4.40;;;1.83;;
59271;SDS011;45043;51.068;7.026;2023-01-13T03:53:12;5.90;;;2.40;;
59271;SDS011;45043;51.068;7.026;2023-01-13T03:56:41;7.07;;;2.00;;
59271;SDS011;45043;51.068;7.026;2023-01-13T03:59:47;5.17;;;2.10;;
59271;SDS011;45043;51.068;7.026;2023-01-13T04:02:52;8.60;;;3.37;;
59271;SDS011;45043;51.068;7.026;2023-01-13T04:05:59;5.60;;;2.47;;
59271;SDS011;45043;51.068;7.026;2023-01-13T04:12:47;6.20;;;2.20;;
59271;SDS011;45043;51.068;7.026;2023-01-13T04:16:01;6.33;;;2.20;;
59271;SDS011;45043;51.068;7.026;2023-01-13T04:19:05;6.90;;;2.10;;
59271;SDS011;45043;51.068;7.026;2023-01-13T04:22:06;8.33;;;2.20;;
59271;SDS011;45043;51.068;7.026;2023-01-13T04:25:07;6.47;;;2.07;;
59271;SDS011;45043;51.068;7.026;2023-01-13T04:28:08;10.67;;;2.80;;
59271;SDS011;45043;51.068;7.026;2023-01-13T04:31:10;11.80;;;2.93;;
59271;SDS011;45043;51.068;7.026;2023-01-13T04:34:11;11.50;;;2.27;;
59271;SDS011;45043;51.068;7.026;2023-01-13T04:37:12;7.57;;;2.80;;
59271;SDS011;45043;51.068;7.026;2023-01-13T04:40:13;7.63;;;2.47;;
59271;SDS011;45043;51.068;7.026;2023-01-13T04:43:13;10.13;;;2.70;;
59271;SDS011;45043;51.068;7.026;2023-01-13T04:46:14;9.40;;;2.60;;
59271;SDS011;45043;51.068;7.026;2023-01-13T04:49:15;8.37;;;2.60;;
59271;SDS011;45043;51.068;7.026;2023-01-13T04:52:15;10.63;;;2.53;;
59271;SDS011;45043;51.068;7.026;2023-01-13T04:55:16;9.57;;;2.90;;
59271;SDS011;45043;51.068;7.026;2023-01-13T04:58:17;10.77;;;2.50;;
59271;SDS011;45043;51.068;7.026;2023-01-13T05:01:18;9.10;;;2.97;;
59271;SDS011;45043;51.068;7.026;2023-01-13T05:04:20;12.97;;;2.60;;
59271;SDS011;45043;51.068;7.026;2023-01-13T05:07:20;9.13;;;2.90;;
59271;SDS011;45043;51.068;7.026;2023-01-13T05:10:21;11.80;;;3.37;;
59271;SDS011;45043;51.068;7.026;2023-01-13T05:13:22;10.10;;;2.70;;
59271;SDS011;45043;51.068;7.026;2023-01-13T05:16:41;13.70;;;3.50;;
59271;SDS011;45043;51.068;7.026;2023-01-13T05:20:00;9.07;;;2.97;;
59271;SDS011;45043;51.068;7.026;2023-01-13T05:23:01;9.47;;;2.77;;
59271;SDS011;45043;51.068;7.026;2023-01-13T05:26:21;11.30;;;2.80;;
59271;SDS011;45043;51.068;7.026;2023-01-13T05:29:22;13.07;;;3.03;;
59271;SDS011;45043;51.068;7.026;2023-01-13T05:32:23;19.13;;;3.67;;
59271;SDS011;45043;51.068;7.026;2023-01-13T05:35:24;9.83;;;3.10;;
59271;SDS011;45043;51.068;7.026;2023-01-13T05:38:25;14.67;;;3.57;;
59271;SDS011;45043;51.068;7.026;2023-01-13T05:41:25;15.03;;;3.20;;
59271;SDS011;45043;51.068;7.026;2023-01-13T05:44:44;10.17;;;3.07;;
59271;SDS011;45043;51.068;7.026;2023-01-13T05:47:45;14.10;;;3.17;;
59271;SDS011;45043;51.068;7.026;2023-01-13T05:50:45;10.63;;;3.00;;
59271;SDS011;45043;51.068;7.026;2023-01-13T05:53:48;11.60;;;3.07;;
59271;SDS011;45043;51.068;7.026;2023-01-13T05:56:48;8.07;;;2.73;;
59271;SDS011;45043;51.068;7.026;2023-01-13T05:59:49;8.00;;;2.17;;
59271;SDS011;45043;51.068;7.026;2023-01-13T06:02:50;7.07;;;2.57;;
59271;SDS011;45043;51.068;7.026;2023-01-13T06:05:51;7.60;;;2.33;;
59271;SDS011;45043;51.068;7.026;2023-01-13T06:08:57;8.70;;;2.50;;
59271;SDS011;45043;51.068;7.026;2023-01-13T06:11:58;9.80;;;2.87;;
59271;SDS011;45043;51.068;7.026;2023-01-13T06:14:58;8.47;;;2.40;;
59271;SDS011;45043;51.068;7.026;2023-01-13T06:18:00;5.37;;;2.33;;
59271;SDS011;45043;51.068;7.026;2023-01-13T06:21:02;6.87;;;2.13;;
59271;SDS011;45043;51.068;7.026;2023-01-13T06:24:04;5.87;;;1.97;;
59271;SDS011;45043;51.068;7.026;2023-01-13T06:27:05;6.40;;;1.87;;
59271;SDS011;45043;51.068;7.026;2023-01-13T06:30:07;7.00;;;2.30;;
59271;SDS011;45043;51.068;7.026;2023-01-13T06:33:11;6.07;;;2.27;;
59271;SDS011;45043;51.068;7.026;2023-01-13T06:36:16;5.70;;;2.00;;
59271;SDS011;45043;51.068;7.026;2023-01-13T06:39:21;4.77;;;1.77;;
59271;SDS011;45043;51.068;7.026;2023-01-13T06:42:27;7.70;;;2.33;;
59271;SDS011;45043;51.068;7.026;2023-01-13T06:48:51;7.27;;;2.07;;
59271;SDS011;45043;51.068;7.026;2023-01-13T06:51:52;6.53;;;2.10;;
59271;SDS011;45043;51.068;7.026;2023-01-13T06:54:52;4.33;;;2.30;;
59271;SDS011;45043;51.068;7.026;2023-01-13T06:57:54;8.60;;;2.23;;
59271;SDS011;45043;51.068;7.026;2023-01-13T07:00:58;6.53;;;1.87;;
59271;SDS011;45043;51.068;7.026;2023-01-13T07:03:59;8.07;;;2.10;;
59271;SDS011;45043;51.068;7.026;2023-01-13T07:07:01;6.90;;;2.27;;
59271;SDS011;45043;51.068;7.026;2023-01-13T07:10:02;6.10;;;2.03;;
59271;SDS011;45043;51.068;7.026;2023-01-13T07:13:03;7.27;;;2.30;;
59271;SDS011;45043;51.068;7.026;2023-01-13T07:16:24;5.20;;;2.17;;
59271;SDS011;45043;51.068;7.026;2023-01-13T07:19:27;5.17;;;2.00;;
59271;SDS011;45043;51.068;7.026;2023-01-13T07:22:27;5.33;;;1.93;;
59271;SDS011;45043;51.068;7.026;2023-01-13T07:25:27;6.30;;;2.30;;
59271;SDS011;45043;51.068;7.026;2023-01-13T07:28:28;5.13;;;2.17;;
59271;SDS011;45043;51.068;7.026;2023-01-13T07:31:30;8.10;;;2.20;;
59271;SDS011;45043;51.068;7.026;2023-01-13T07:34:30;9.60;;;2.40;;
59271;SDS011;45043;51.068;7.026;2023-01-13T07:37:32;8.67;;;2.33;;
59271;SDS011;45043;51.068;7.026;2023-01-13T07:40:35;8.03;;;2.63;;
59271;SDS011;45043;51.068;7.026;2023-01-13T07:43:35;5.90;;;2.03;;
59271;SDS011;45043;51.068;7.026;2023-01-13T07:46:37;8.37;;;2.53;;
59271;SDS011;45043;51.068;7.026;2023-01-13T07:49:38;8.10;;;2.53;;
59271;SDS011;45043;51.068;7.026;2023-01-13T07:52:39;4.63;;;1.73;;
59271;SDS011;45043;51.068;7.026;2023-01-13T07:55:40;6.13;;;1.90;;
59271;SDS011;45043;51.068;7.026;2023-01-13T07:58:42;7.37;;;1.70;;
59271;SDS011;45043;51.068;7.026;2023-01-13T08:01:44;3.70;;;1.77;;
59271;SDS011;45043;51.068;7.026;2023-01-13T08:04:44;3.83;;;1.57;;
59271;SDS011;45043;51.068;7.026;2023-01-13T08:07:45;6.37;;;1.70;;
59271;SDS011;45043;51.068;7.026;2023-01-13T08:10:45;6.47;;;2.13;;
59271;SDS011;45043;51.068;7.026;2023-01-13T08:13:46;6.67;;;2.13;;
59271;SDS011;45043;51.068;7.026;2023-01-13T08:16:46;6.20;;;2.17;;
59271;SDS011;45043;51.068;7.026;2023-01-13T08:19:47;6.93;;;1.90;;
59271;SDS011;45043;51.068;7.026;2023-01-13T08:22:47;6.73;;;2.13;;
59271;SDS011;45043;51.068;7.026;2023-01-13T08:25:48;6.10;;;1.70;;
59271;SDS011;45043;51.068;7.026;2023-01-13T08:28:48;7.37;;;2.10;;
59271;SDS011;45043;51.068;7.026;2023-01-13T08:31:49;9.77;;;2.70;;
59271;SDS011;45043;51.068;7.026;2023-01-13T08:34:54;8.00;;;2.30;;
59271;SDS011;45043;51.068;7.026;2023-01-13T08:37:54;7.37;;;2.27;;
59271;SDS011;45043;51.068;7.026;2023-01-13T08:40:57;6.93;;;2.73;;
59271;SDS011;45043;51.068;7.026;2023-01-13T08:43:58;9.03;;;2.43;;
59271;SDS011;45043;51.068;7.026;2023-01-13T08:46:59;9.87;;;2.60;;
59271;SDS011;45043;51.068;7.026;2023-01-13T08:49:59;6.53;;;2.23;;
59271;SDS011;45043;51.068;7.026;2023-01-13T08:53:00;7.50;;;2.50;;
59271;SDS011;45043;51.068;7.026;2023-01-13T08:56:00;14.07;;;2.67;;
59271;SDS011;45043;51.068;7.026;2023-01-13T08:59:01;8.00;;;2.30;;
59271;SDS011;45043;51.068;7.026;2023-01-13T09:02:02;12.57;;;2.80;;
59271;SDS011;45043;51.068;7.026;2023-01-13T09:05:05;11.57;;;3.10;;
59271;SDS011;45043;51.068;7.026;2023-01-13T09:08:06;10.47;;;2.30;;
59271;SDS011;45043;51.068;7.026;2023-01-13T09:11:08;10.20;;;2.93;;
59271;SDS011;45043;51.068;7.026;2023-01-13T09:14:38;9.77;;;3.27;;
59271;SDS011;45043;51.068;7.026;2023-01-13T09:17:39;9.23;;;2.80;;
59271;SDS011;45043;51.068;7.026;2023-01-13T09:20:40;9.50;;;3.00;;
59271;SDS011;45043;51.068;7.026;2023-01-13T09:23:40;10.00;;;2.97;;
59271;SDS011;45043;51.068;7.026;2023-01-13T09:26:40;12.70;;;3.60;;
59271;SDS011;45043;51.068;7.026;2023-01-13T09:29:41;12.43;;;3.57;;
59271;SDS011;45043;51.068;7.026;2023-01-13T09:32:42;8.47;;;3.10;;
59271;SDS011;45043;51.068;7.026;2023-01-13T09:35:42;12.73;;;3.13;;
59271;SDS011;45043;51.068;7.026;2023-01-13T09:38:42;11.73;;;2.70;;
59271;SDS011;45043;51.068;7.026;2023-01-13T09:41:43;9.93;;;3.10;;
59271;SDS011;45043;51.068;7.026;2023-01-13T09:45:11;10.13;;;2.97;;
59271;SDS011;45043;51.068;7.026;2023-01-13T09:48:18;14.73;;;3.23;;
59271;SDS011;45043;51.068;7.026;2023-01-13T09:51:27;9.60;;;2.93;;
59271;SDS011;45043;51.068;7.026;2023-01-13T09:54:42;13.80;;;3.77;;
59271;SDS011;45043;51.068;7.026;2023-01-13T09:57:45;11.37;;;3.20;;
59271;SDS011;45043;51.068;7.026;2023-01-13T10:00:48;16.10;;;3.97;;
59271;SDS011;45043;51.068;7.026;2023-01-13T10:04:12;11.87;;;3.30;;
59271;SDS011;45043;51.068;7.026;2023-01-13T10:07:15;12.27;;;3.73;;
59271;SDS011;45043;51.068;7.026;2023-01-13T10:10:17;13.00;;;3.50;;
59271;SDS011;45043;51.068;7.026;2023-01-13T10:13:33;13.70;;;3.93;;
59271;SDS011;45043;51.068;7.026;2023-01-13T10:19:48;12.10;;;3.80;;
59271;SDS011;45043;51.068;7.026;2023-01-13T10:22:55;11.47;;;3.53;;
59271;SDS011;45043;51.068;7.026;2023-01-13T10:26:27;12.87;;;3.50;;
59271;SDS011;45043;51.068;7.026;2023-01-13T10:29:33;12.50;;;3.30;;
59271;SDS011;45043;51.068;7.026;2023-01-13T10:32:35;13.30;;;3.33;;
59271;SDS011;45043;51.068;7.026;2023-01-13T10:39:14;11.23;;;3.13;;
59271;SDS011;45043;51.068;7.026;2023-01-13T10:42:16;16.27;;;3.73;;
59271;SDS011;45043;51.068;7.026;2023-01-13T10:45:24;8.57;;;2.60;;
59271;SDS011;45043;51.068;7.026;2023-01-13T10:48:32;17.93;;;3.20;;
59271;SDS011;45043;51.068;7.026;2023-01-13T10:51:43;14.77;;;3.13;;
59271;SDS011;45043;51.068;7.026;2023-01-13T10:54:49;19.00;;;3.80;;
59271;SDS011;45043;51.068;7.026;2023-01-13T10:57:52;15.97;;;3.37;;
59271;SDS011;45043;51.068;7.026;2023-01-13T11:01:03;12.37;;;3.20;;
59271;SDS011;45043;51.068;7.026;2023-01-13T11:04:24;12.60;;;3.70;;
59271;SDS011;45043;51.068;7.026;2023-01-13T11:10:43;10.60;;;4.00;;
59271;SDS011;45043;51.068;7.026;2023-01-13T11:13:46;14.73;;;4.10;;
59271;SDS011;45043;51.068;7.026;2023-01-13T11:20:25;12.33;;;3.70;;
59271;SDS011;45043;51.068;7.026;2023-01-13T11:23:36;14.57;;;3.97;;
59271;SDS011;45043;51.068;7.026;2023-01-13T11:26:45;13.50;;;4.30;;
59271;SDS011;45043;51.068;7.026;2023-01-13T11:30:01;9.77;;;3.10;;
59271;SDS011;45043;51.068;7.026;2023-01-13T11:36:16;11.40;;;3.57;;
59271;SDS011;45043;51.068;7.026;2023-01-13T11:42:39;12.57;;;3.50;;
59271;SDS011;45043;51.068;7.026;2023-01-13T11:45:56;13.93;;;3.60;;
59271;SDS011;45043;51.068;7.026;2023-01-13T11:48:59;14.20;;;3.60;;
59271;SDS011;45043;51.068;7.026;2023-01-13T11:52:05;12.30;;;3.20;;
59271;SDS011;45043;51.068;7.026;2023-01-13T12:05:36;11.93;;;3.30;;
59271;SDS011;45043;51.068;7.026;2023-01-13T12:22:08;8.20;;;2.47;;
59271;SDS011;45043;51.068;7.026;2023-01-13T12:25:15;10.17;;;2.60;;
59271;SDS011;45043;51.068;7.026;2023-01-13T12:28:30;8.13;;;2.80;;
59271;SDS011;45043;51.068;7.026;2023-01-13T12:31:40;9.63;;;2.97;;
59271;SDS011;45043;51.068;7.026;2023-01-13T12:38:41;10.70;;;2.90;;
59271;SDS011;45043;51.068;7.026;2023-01-13T12:48:43;11.20;;;3.20;;
59271;SDS011;45043;51.068;7.026;2023-01-13T12:58:17;11.97;;;3.03;;
59271;SDS011;45043;51.068;7.026;2023-01-13T13:01:18;11.57;;;3.30;;
59271;SDS011;45043;51.068;7.026;2023-01-13T13:04:41;10.67;;;3.23;;
59271;SDS011;45043;51.068;7.026;2023-01-13T13:08:08;8.97;;;3.13;;
59271;SDS011;45043;51.068;7.026;2023-01-13T13:11:18;11.37;;;3.50;;
59271;SDS011;45043;51.068;7.026;2023-01-13T13:17:41;9.40;;;3.17;;
59271;SDS011;45043;51.068;7.026;2023-01-13T13:30:35;12.77;;;3.67;;
59271;SDS011;45043;51.068;7.026;2023-01-13T13:33:46;12.60;;;3.73;;
59271;SDS011;45043;51.068;7.026;2023-01-13T13:37:17;13.37;;;3.50;;
59271;SDS011;45043;51.068;7.026;2023-01-13T13:41:24;13.27;;;3.40;;
59271;SDS011;45043;51.068;7.026;2023-01-13T13:44:44;13.37;;;3.27;;
59271;SDS011;45043;51.068;7.026;2023-01-13T13:48:19;10.83;;;4.60;;
59271;SDS011;45043;51.068;7.026;2023-01-13T13:54:30;8.10;;;3.07;;
59271;SDS011;45043;51.068;7.026;2023-01-13T13:57:33;9.40;;;3.07;;
59271;SDS011;45043;51.068;7.026;2023-01-13T14:00:36;11.63;;;3.07;;
59271;SDS011;45043;51.068;7.026;2023-01-13T14:03:37;11.00;;;2.90;;
59271;SDS011;45043;51.068;7.026;2023-01-13T14:06:47;7.67;;;2.30;;
59271;SDS011;45043;51.068;7.026;2023-01-13T14:09:50;8.37;;;2.80;;
59271;SDS011;45043;51.068;7.026;2023-01-13T14:12:53;9.40;;;2.80;;
59271;SDS011;45043;51.068;7.026;2023-01-13T14:15:57;10.17;;;3.13;;
59271;SDS011;45043;51.068;7.026;2023-01-13T14:19:01;8.10;;;2.53;;
59271;SDS011;45043;51.068;7.026;2023-01-13T14:22:02;10.63;;;3.30;;
59271;SDS011;45043;51.068;7.026;2023-01-13T14:25:19;8.40;;;2.60;;
59271;SDS011;45043;51.068;7.026;2023-01-13T14:28:33;11.13;;;3.47;;
59271;SDS011;45043;51.068;7.026;2023-01-13T14:31:37;11.07;;;3.20;;
59271;SDS011;45043;51.068;7.026;2023-01-13T14:34:38;9.73;;;3.10;;
59271;SDS011;45043;51.068;7.026;2023-01-13T14:37:40;8.43;;;3.07;;
59271;SDS011;45043;51.068;7.026;2023-01-13T14:40:42;11.40;;;2.90;;
59271;SDS011;45043;51.068;7.026;2023-01-13T14:43:45;12.00;;;3.33;;
59271;SDS011;45043;51.068;7.026;2023-01-13T14:46:47;11.93;;;3.73;;
59271;SDS011;45043;51.068;7.026;2023-01-13T14:49:52;11.17;;;3.10;;
59271;SDS011;45043;51.068;7.026;2023-01-13T14:53:25;10.70;;;3.07;;
59271;SDS011;45043;51.068;7.026;2023-01-13T14:56:43;14.00;;;3.63;;
59271;SDS011;45043;51.068;7.026;2023-01-13T15:02:59;10.00;;;3.17;;
59271;SDS011;45043;51.068;7.026;2023-01-13T15:06:18;9.93;;;3.07;;
59271;SDS011;45043;51.068;7.026;2023-01-13T15:09:22;12.93;;;3.07;;
59271;SDS011;45043;51.068;7.026;2023-01-13T15:12:33;8.10;;;3.23;;
59271;SDS011;45043;51.068;7.026;2023-01-13T15:15:38;12.40;;;3.53;;
59271;SDS011;45043;51.068;7.026;2023-01-13T15:18:39;15.77;;;4.10;;
59271;SDS011;45043;51.068;7.026;2023-01-13T15:21:40;10.93;;;3.33;;
59271;SDS011;45043;51.068;7.026;2023-01-13T15:24:41;10.23;;;3.43;;
59271;SDS011;45043;51.068;7.026;2023-01-13T15:27:42;9.47;;;2.70;;
59271;SDS011;45043;51.068;7.026;2023-01-13T15:30:45;12.87;;;3.57;;
59271;SDS011;45043;51.068;7.026;2023-01-13T15:33:46;13.10;;;3.50;;
59271;SDS011;45043;51.068;7.026;2023-01-13T15:36:47;13.07;;;3.77;;
59271;SDS011;45043;51.068;7.026;2023-01-13T15:39:47;15.83;;;4.23;;
59271;SDS011;45043;51.068;7.026;2023-01-13T15:42:48;11.73;;;3.73;;
59271;SDS011;45043;51.068;7.026;2023-01-13T15:46:14;10.27;;;3.83;;
59271;SDS011;45043;51.068;7.026;2023-01-13T15:49:38;13.40;;;4.30;;
59271;SDS011;45043;51.068;7.026;2023-01-13T15:52:41;10.53;;;3.53;;
59271;SDS011;45043;51.068;7.026;2023-01-13T15:55:42;18.13;;;4.77;;
59271;SDS011;45043;51.068;7.026;2023-01-13T15:58:45;12.47;;;3.87;;
59271;SDS011;45043;51.068;7.026;2023-01-13T16:01:46;14.93;;;3.70;;
59271;SDS011;45043;51.068;7.026;2023-01-13T16:04:46;14.70;;;4.43;;
59271;SDS011;45043;51.068;7.026;2023-01-13T16:07:47;12.03;;;3.90;;
59271;SDS011;45043;51.068;7.026;2023-01-13T16:10:48;15.67;;;3.83;;
59271;SDS011;45043;51.068;7.026;2023-01-13T16:13:49;16.47;;;3.13;;
59271;SDS011;45043;51.068;7.026;2023-01-13T16:16:49;10.27;;;3.23;;
59271;SDS011;45043;51.068;7.026;2023-01-13T16:19:51;9.70;;;3.37;;
59271;SDS011;45043;51.068;7.026;2023-01-13T16:22:52;9.40;;;3.97;;
59271;SDS011;45043;51.068;7.026;2023-01-13T16:25:52;11.00;;;3.47;;
59271;SDS011;45043;51.068;7.026;2023-01-13T16:28:53;8.90;;;2.80;;
59271;SDS011;45043;51.068;7.026;2023-01-13T16:31:55;8.53;;;3.10;;
59271;SDS011;45043;51.068;7.026;2023-01-13T16:34:56;10.10;;;3.27;;
59271;SDS011;45043;51.068;7.026;2023-01-13T16:37:56;6.80;;;3.07;;
59271;SDS011;45043;51.068;7.026;2023-01-13T16:40:58;12.13;;;3.37;;
59271;SDS011;45043;51.068;7.026;2023-01-13T16:43:59;8.97;;;3.30;;
59271;SDS011;45043;51.068;7.026;2023-01-13T16:47:05;5.03;;;2.70;;
59271;SDS011;45043;51.068;7.026;2023-01-13T16:50:23;11.50;;;3.50;;
59271;SDS011;45043;51.068;7.026;2023-01-13T16:53:27;9.87;;;2.93;;
59271;SDS011;45043;51.068;7.026;2023-01-13T16:56:29;7.87;;;3.40;;
59271;SDS011;45043;51.068;7.026;2023-01-13T16:59:31;9.73;;;3.57;;
59271;SDS011;45043;51.068;7.026;2023-01-13T17:02:31;12.57;;;4.13;;
59271;SDS011;45043;51.068;7.026;2023-01-13T17:05:32;11.13;;;3.90;;
59271;SDS011;45043;51.068;7.026;2023-01-13T17:08:33;16.97;;;4.23;;
59271;SDS011;45043;51.068;7.026;2023-01-13T17:11:33;14.10;;;3.90;;
59271;SDS011;45043;51.068;7.026;2023-01-13T17:14:33;13.00;;;4.30;;
59271;SDS011;45043;51.068;7.026;2023-01-13T17:17:34;15.80;;;4.60;;
59271;SDS011;45043;51.068;7.026;2023-01-13T17:20:34;11.93;;;4.00;;
59271;SDS011;45043;51.068;7.026;2023-01-13T17:23:35;13.80;;;5.00;;
59271;SDS011;45043;51.068;7.026;2023-01-13T17:26:36;18.73;;;4.30;;
59271;SDS011;45043;51.068;7.026;2023-01-13T17:29:41;16.93;;;4.80;;
59271;SDS011;45043;51.068;7.026;2023-01-13T17:32:41;17.37;;;4.50;;
59271;SDS011;45043;51.068;7.026;2023-01-13T17:35:42;18.53;;;5.03;;
59271;SDS011;45043;51.068;7.026;2023-01-13T17:38:42;13.73;;;4.80;;
59271;SDS011;45043;51.068;7.026;2023-01-13T17:41:43;14.23;;;4.97;;
59271;SDS011;45043;51.068;7.026;2023-01-13T17:44:44;15.40;;;4.63;;
59271;SDS011;45043;51.068;7.026;2023-01-13T17:47:45;17.47;;;4.97;;
59271;SDS011;45043;51.068;7.026;2023-01-13T17:50:47;17.00;;;4.60;;
59271;SDS011;45043;51.068;7.026;2023-01-13T17:53:49;12.27;;;3.63;;
59271;SDS011;45043;51.068;7.026;2023-01-13T17:56:50;17.50;;;3.63;;
59271;SDS011;45043;51.068;7.026;2023-01-13T17:59:50;14.43;;;4.07;;
59271;SDS011;45043;51.068;7.026;2023-01-13T18:02:51;16.67;;;4.60;;
59271;SDS011;45043;51.068;7.026;2023-01-13T18:05:52;13.47;;;4.37;;
59271;SDS011;45043;51.068;7.026;2023-01-13T18:08:53;14.90;;;4.13;;
59271;SDS011;45043;51.068;7.026;2023-01-13T18:11:54;17.10;;;4.83;;
59271;SDS011;45043;51.068;7.026;2023-01-13T18:14:55;14.27;;;3.57;;
59271;SDS011;45043;51.068;7.026;2023-01-13T18:17:55;12.30;;;3.77;;
59271;SDS011;45043;51.068;7.026;2023-01-13T18:20:56;12.13;;;4.10;;
59271;SDS011;45043;51.068;7.026;2023-01-13T18:24:15;18.40;;;4.53;;
59271;SDS011;45043;51.068;7.026;2023-01-13T18:27:34;12.40;;;3.57;;
59271;SDS011;45043;51.068;7.026;2023-01-13T18:30:37;16.83;;;3.67;;
59271;SDS011;45043;51.068;7.026;2023-01-13T18:33:37;15.20;;;4.30;;
59271;SDS011;45043;51.068;7.026;2023-01-13T18:36:38;9.93;;;4.47;;
59271;SDS011;45043;51.068;7.026;2023-01-13T18:39:39;11.37;;;3.87;;
59271;SDS011;45043;51.068;7.026;2023-01-13T18:42:40;14.97;;;4.10;;
59271;SDS011;45043;51.068;7.026;2023-01-13T18:45:53;10.47;;;3.57;;
59271;SDS011;45043;51.068;7.026;2023-01-13T18:48:54;14.40;;;4.23;;
59271;SDS011;45043;51.068;7.026;2023-01-13T18:51:54;10.37;;;4.10;;
59271;SDS011;45043;51.068;7.026;2023-01-13T18:54:55;14.23;;;4.20;;
59271;SDS011;45043;51.068;7.026;2023-01-13T18:57:56;10.93;;;3.63;;
59271;SDS011;45043;51.068;7.026;2023-01-13T19:01:01;12.43;;;4.10;;
59271;SDS011;45043;51.068;7.026;2023-01-13T19:04:04;15.73;;;3.90;;
59271;SDS011;45043;51.068;7.026;2023-01-13T19:07:10;13.87;;;3.87;;
59271;SDS011;45043;51.068;7.026;2023-01-13T19:10:12;18.23;;;3.83;;
59271;SDS011;45043;51.068;7.026;2023-01-13T19:13:12;13.90;;;3.97;;
59271;SDS011;45043;51.068;7.026;2023-01-13T19:16:15;13.70;;;4.63;;
59271;SDS011;45043;51.068;7.026;2023-01-13T19:19:17;16.27;;;3.93;;
59271;SDS011;45043;51.068;7.026;2023-01-13T19:22:18;14.73;;;3.73;;
59271;SDS011;45043;51.068;7.026;2023-01-13T19:25:26;15.03;;;4.63;;
59271;SDS011;45043;51.068;7.026;2023-01-13T19:28:26;12.60;;;3.83;;
59271;SDS011;45043;51.068;7.026;2023-01-13T19:31:27;18.40;;;5.03;;
59271;SDS011;45043;51.068;7.026;2023-01-13T19:34:28;18.63;;;4.03;;
59271;SDS011;45043;51.068;7.026;2023-01-13T19:37:28;11.43;;;3.90;;
59271;SDS011;45043;51.068;7.026;2023-01-13T19:40:33;16.67;;;4.50;;
59271;SDS011;45043;51.068;7.026;2023-01-13T19:43:33;19.13;;;4.17;;
59271;SDS011;45043;51.068;7.026;2023-01-13T19:46:52;18.37;;;4.50;;
59271;SDS011;45043;51.068;7.026;2023-01-13T19:49:53;15.03;;;4.13;;
59271;SDS011;45043;51.068;7.026;2023-01-13T19:52:53;15.57;;;3.83;;
59271;SDS011;45043;51.068;7.026;2023-01-13T19:55:54;19.27;;;4.27;;
59271;SDS011;45043;51.068;7.026;2023-01-13T19:58:55;15.10;;;3.73;;
59271;SDS011;45043;51.068;7.026;2023-01-13T20:01:55;14.50;;;4.80;;
59271;SDS011;45043;51.068;7.026;2023-01-13T20:05:00;18.37;;;4.83;;
59271;SDS011;45043;51.068;7.026;2023-01-13T20:08:02;16.57;;;4.03;;
59271;SDS011;45043;51.068;7.026;2023-01-13T20:11:03;14.10;;;4.17;;
59271;SDS011;45043;51.068;7.026;2023-01-13T20:14:22;25.50;;;4.93;;
59271;SDS011;45043;51.068;7.026;2023-01-13T20:17:23;14.77;;;4.10;;
59271;SDS011;45043;51.068;7.026;2023-01-13T20:20:25;17.10;;;4.10;;
59271;SDS011;45043;51.068;7.026;2023-01-13T20:23:26;17.37;;;4.80;;